Time;durP1;ratioP1;P1;durP2;ratioP2;P2;SDS_P1;SDS_P2;PMS_P1;PMS_P2;Temp;Humidity;BMP_temperature;BMP_pressure;BME280_temperature;BME280_humidity;BME280_pressure;Samples;Min_cycle;Max_cycle;Signal;HPM_P1;HPM_P2
2022/10/27 00:01:45;;;;;;;14.90;9.55;;;13.50;81.40;;;;;;5074242;28;20048;-18
2022/10/27 00:04:11;;;;;;;17.25;11.05;;;13.40;81.50;;;;;;5073507;28;20029;-17
2022/10/27 00:06:37;;;;;;;18.75;12.02;;;13.40;81.50;;;;;;5073028;28;20120;-18
2022/10/27 00:09:03;;;;;;;18.00;11.05;;;13.40;81.40;;;;;;5073262;28;20107;-18
2022/10/27 00:11:29;;;;;;;13.15;8.57;;;13.40;81.50;;;;;;5073839;28;20032;-16
2022/10/27 00:13:55;;;;;;;18.52;11.18;;;13.40;81.50;;;;;;5073461;28;20441;-16
2022/10/27 00:16:21;;;;;;;20.30;12.80;;;13.40;81.60;;;;;;5071845;28;20392;-18
2022/10/27 00:18:47;;;;;;;22.40;13.52;;;13.40;81.60;;;;;;5073381;28;20071;-17
2022/10/27 00:21:19;;;;;;;20.10;11.27;;;13.30;81.50;;;;;;5072835;28;20017;-17
2022/10/27 00:23:51;;;;;;;20.80;12.90;;;13.30;81.50;;;;;;5073298;28;20142;-17
2022/10/27 00:26:19;;;;;;;19.23;12.07;;;13.30;81.50;;;;;;5074269;28;20503;-17
2022/10/27 00:28:45;;;;;;;16.05;10.73;;;13.20;81.60;;;;;;5080214;28;20040;-17
2022/10/27 00:31:15;;;;;;;19.45;12.15;;;13.20;81.70;;;;;;5079435;28;20396;-18
2022/10/27 00:33:42;;;;;;;22.50;13.13;;;13.20;81.80;;;;;;5079903;28;20028;-17
2022/10/27 00:36:11;;;;;;;18.33;13.02;;;13.10;81.90;;;;;;5079802;28;20029;-18
2022/10/27 00:38:37;;;;;;;21.27;12.30;;;13.10;81.90;;;;;;5079510;28;20440;-18
2022/10/27 00:41:06;;;;;;;24.50;15.65;;;13.10;81.80;;;;;;5079305;28;20103;-17
2022/10/27 00:43:38;;;;;;;30.85;17.90;;;13.00;81.80;;;;;;5079744;28;20119;-17
2022/10/27 00:46:19;;;;;;;19.77;12.63;;;13.00;82.10;;;;;;5079585;28;20111;-19
2022/10/27 00:48:48;;;;;;;17.70;11.38;;;13.00;82.20;;;;;;5079510;28;20115;-18
2022/10/27 00:51:16;;;;;;;17.52;11.05;;;13.10;82.10;;;;;;5079341;28;20030;-18
2022/10/27 00:53:43;;;;;;;18.42;12.35;;;13.00;82.00;;;;;;5079410;28;20028;-16
2022/10/27 00:56:10;;;;;;;19.55;12.65;;;13.00;82.00;;;;;;5079413;28;20423;-18
2022/10/27 00:58:37;;;;;;;19.90;12.55;;;13.00;82.00;;;;;;5079654;28;20111;-16
2022/10/27 01:01:03;;;;;;;20.88;13.52;;;13.00;82.10;;;;;;5079791;28;20025;-18
2022/10/27 01:03:30;;;;;;;20.77;13.65;;;13.00;82.20;;;;;;5079254;28;20541;-17
2022/10/27 01:05:58;;;;;;;22.33;13.57;;;13.00;82.20;;;;;;5079233;28;20032;-18
2022/10/27 01:08:25;;;;;;;20.77;12.73;;;13.00;82.10;;;;;;5079870;28;20422;-18
2022/10/27 01:10:52;;;;;;;18.67;13.15;;;13.00;82.10;;;;;;5077881;28;20028;-17
2022/10/27 01:13:18;;;;;;;19.25;13.13;;;12.90;82.10;;;;;;5079238;28;20431;-17
2022/10/27 01:16:15;;;;;;;16.88;11.48;;;12.90;82.00;;;;;;5079563;28;20024;-18
2022/10/27 01:19:29;;;;;;;17.23;10.57;;;12.90;82.10;;;;;;5079551;28;20103;-17
2022/10/27 01:22:27;;;;;;;19.63;12.00;;;12.90;82.10;;;;;;5047535;28;20028;-17
2022/10/27 01:24:59;;;;;;;18.83;11.77;;;12.90;82.00;;;;;;5036905;28;20037;-17
2022/10/27 01:27:58;;;;;;;21.73;13.65;;;12.90;82.00;;;;;;5037073;28;20117;-16
2022/10/27 01:30:24;;;;;;;23.45;14.27;;;12.90;82.00;;;;;;5037064;28;20053;-17
2022/10/27 01:33:07;;;;;;;30.30;16.85;;;12.90;82.10;;;;;;5036830;28;20065;-17
2022/10/27 01:35:52;;;;;;;24.50;15.33;;;12.90;82.10;;;;;;5037196;28;20213;-17
2022/10/27 01:38:52;;;;;;;20.15;12.90;;;12.90;82.40;;;;;;5034977;28;20034;-15
2022/10/27 01:41:21;;;;;;;25.27;16.33;;;12.80;82.50;;;;;;5020475;28;20022;-17
2022/10/27 01:43:51;;;;;;;22.20;13.75;;;12.80;82.40;;;;;;5033509;28;20080;-17
2022/10/27 01:46:20;;;;;;;30.10;18.52;;;12.70;82.40;;;;;;5033818;28;20053;-15
2022/10/27 01:48:46;;;;;;;27.85;16.90;;;12.70;82.60;;;;;;5017393;28;20029;-16
2022/10/27 01:51:16;;;;;;;33.80;18.30;;;12.80;82.80;;;;;;5034326;28;20551;-17
2022/10/27 01:53:47;;;;;;;34.80;19.45;;;12.80;82.80;;;;;;5033690;28;20037;-17
2022/10/27 01:56:34;;;;;;;27.50;16.17;;;12.80;82.70;;;;;;5033521;28;20033;-17
2022/10/27 01:59:28;;;;;;;23.27;13.43;;;12.80;82.90;;;;;;5033479;28;20033;-18
2022/10/27 02:02:10;;;;;;;28.20;16.23;;;12.70;82.90;;;;;;5075754;28;20032;-17
2022/10/27 02:04:51;;;;;;;21.13;13.68;;;12.70;83.00;;;;;;5075470;28;20032;-17
2022/10/27 02:07:39;;;;;;;22.00;12.65;;;12.70;83.00;;;;;;5075793;28;20361;-17
2022/10/27 02:10:15;;;;;;;14.60;9.18;;;12.60;83.10;;;;;;5075376;28;20037;-17
2022/10/27 02:12:44;;;;;;;14.43;9.77;;;12.60;83.10;;;;;;5075580;28;20024;-17
2022/10/27 02:15:32;;;;;;;19.50;12.10;;;12.60;83.00;;;;;;5075264;28;20115;-18
2022/10/27 02:18:17;;;;;;;20.45;12.05;;;12.50;83.00;;;;;;5075519;28;20096;-16
2022/10/27 02:20:47;;;;;;;20.67;13.15;;;12.50;83.00;;;;;;5073921;28;20040;-18
2022/10/27 02:23:18;;;;;;;20.35;12.45;;;12.50;83.10;;;;;;5075883;28;20036;-18
2022/10/27 02:25:51;;;;;;;22.17;11.88;;;12.50;83.20;;;;;;5075608;28;20077;-18
2022/10/27 02:28:22;;;;;;;30.27;17.45;;;12.50;83.00;;;;;;5074927;28;20035;-17
2022/10/27 02:30:50;;;;;;;29.88;15.20;;;12.50;83.10;;;;;;5074679;28;20464;-19
2022/10/27 02:33:17;;;;;;;21.65;13.13;;;12.50;83.10;;;;;;5073644;28;20020;-18
2022/10/27 02:35:43;;;;;;;24.58;14.07;;;12.50;83.10;;;;;;5075106;28;20051;-18
2022/10/27 02:38:09;;;;;;;19.95;12.75;;;12.40;83.10;;;;;;5074661;28;20020;-16
2022/10/27 02:40:35;;;;;;;24.35;14.43;;;12.40;83.20;;;;;;5073479;28;20070;-16
2022/10/27 02:43:01;;;;;;;22.38;12.07;;;12.40;83.20;;;;;;5074939;28;20024;-16
2022/10/27 02:45:27;;;;;;;20.45;12.98;;;12.40;83.20;;;;;;5074453;28;20098;-17
2022/10/27 02:47:53;;;;;;;23.23;14.55;;;12.40;83.30;;;;;;5074545;28;20035;-18
2022/10/27 02:50:19;;;;;;;20.25;12.60;;;12.40;83.20;;;;;;5074620;28;20033;-16
2022/10/27 02:52:45;;;;;;;20.23;11.73;;;12.30;83.40;;;;;;5074356;28;20403;-17
2022/10/27 02:55:11;;;;;;;22.80;12.98;;;12.30;83.40;;;;;;5074191;28;20025;-16
2022/10/27 02:57:37;;;;;;;29.13;17.33;;;12.40;83.40;;;;;;5074682;28;20050;-18
2022/10/27 03:00:05;;;;;;;21.25;13.23;;;12.40;83.70;;;;;;5074285;28;20033;-17
2022/10/27 03:02:31;;;;;;;23.92;14.18;;;12.40;83.60;;;;;;5074785;28;20028;-16
2022/10/27 03:04:56;;;;;;;20.70;13.25;;;12.40;83.50;;;;;;5074022;28;20383;-17
2022/10/27 03:07:23;;;;;;;20.38;11.93;;;12.40;83.60;;;;;;5074352;28;20032;-16
2022/10/27 03:09:49;;;;;;;20.30;12.40;;;12.40;83.70;;;;;;5074349;28;20093;-18
2022/10/27 03:12:15;;;;;;;18.80;10.65;;;12.40;83.60;;;;;;5074401;28;20460;-17
2022/10/27 03:14:40;;;;;;;19.77;12.55;;;12.40;83.70;;;;;;5074069;28;20040;-18
2022/10/27 03:17:06;;;;;;;18.17;11.45;;;12.40;83.50;;;;;;5073995;28;20035;-16
2022/10/27 03:19:32;;;;;;;18.63;11.52;;;12.40;83.40;;;;;;5074537;28;20027;-17
2022/10/27 03:21:58;;;;;;;21.17;12.88;;;12.40;83.40;;;;;;5073668;28;20114;-16
2022/10/27 03:24:24;;;;;;;21.45;13.05;;;12.30;83.50;;;;;;5074101;28;20036;-17
2022/10/27 03:26:50;;;;;;;17.83;10.88;;;12.40;83.70;;;;;;5072393;28;20027;-18
2022/10/27 03:29:16;;;;;;;19.48;11.77;;;12.30;83.60;;;;;;5074076;28;20029;-16
2022/10/27 03:31:42;;;;;;;21.17;12.48;;;12.30;83.50;;;;;;5074018;28;20488;-17
2022/10/27 03:34:08;;;;;;;25.15;13.38;;;12.30;83.60;;;;;;5074274;28;20027;-18
2022/10/27 03:36:35;;;;;;;23.63;12.00;;;12.30;83.70;;;;;;5073533;28;20024;-16
2022/10/27 03:39:01;;;;;;;18.52;10.55;;;12.20;83.50;;;;;;5073460;28;20029;-17
2022/10/27 03:41:27;;;;;;;19.30;11.63;;;12.10;83.50;;;;;;5073885;28;20025;-19
2022/10/27 03:43:53;;;;;;;27.33;13.88;;;12.10;83.40;;;;;;5073463;28;20036;-19
2022/10/27 03:46:19;;;;;;;19.05;12.68;;;12.10;83.60;;;;;;5073892;28;20027;-16
2022/10/27 03:48:45;;;;;;;23.05;13.38;;;12.00;83.70;;;;;;5073702;28;20029;-17
2022/10/27 03:51:11;;;;;;;20.13;12.10;;;12.00;83.90;;;;;;5073118;28;20479;-19
2022/10/27 03:53:37;;;;;;;19.63;11.35;;;12.00;83.80;;;;;;5073788;28;20032;-17
2022/10/27 03:56:03;;;;;;;19.63;12.10;;;12.00;83.70;;;;;;5073650;28;20021;-17
2022/10/27 03:58:29;;;;;;;24.30;12.80;;;12.00;83.70;;;;;;5072214;28;20028;-17
2022/10/27 04:01:01;;;;;;;26.10;15.55;;;12.00;83.60;;;;;;5072920;28;20073;-17
2022/10/27 04:03:27;;;;;;;19.73;11.45;;;12.00;83.80;;;;;;5073193;28;20452;-18
2022/10/27 04:05:53;;;;;;;28.55;14.88;;;12.00;83.80;;;;;;5073532;28;20056;-18
2022/10/27 04:08:19;;;;;;;19.35;11.13;;;12.10;83.70;;;;;;5073439;28;20055;-16
2022/10/27 04:10:45;;;;;;;18.58;10.18;;;12.00;83.80;;;;;;5073739;28;20028;-18
2022/10/27 04:13:11;;;;;;;22.55;12.95;;;12.10;83.80;;;;;;5073521;28;20554;-18
2022/10/27 04:15:37;;;;;;;29.00;15.52;;;12.10;83.70;;;;;;5073322;28;20020;-18
2022/10/27 04:18:03;;;;;;;17.98;10.98;;;12.10;83.60;;;;;;5073382;28;20029;-16
2022/10/27 04:20:30;;;;;;;22.52;14.63;;;12.10;83.70;;;;;;5071788;28;20028;-17
2022/10/27 04:22:57;;;;;;;24.52;14.15;;;12.20;83.80;;;;;;5072661;28;20028;-17
2022/10/27 04:25:24;;;;;;;20.08;12.07;;;12.10;83.70;;;;;;5071783;28;20123;-16
2022/10/27 04:27:49;;;;;;;16.08;10.05;;;12.10;83.70;;;;;;5073304;28;20090;-16
2022/10/27 04:30:15;;;;;;;17.60;11.00;;;12.10;83.60;;;;;;5073239;28;20025;-17
2022/10/27 04:32:41;;;;;;;19.20;11.15;;;12.10;83.70;;;;;;5072938;28;20023;-15
2022/10/27 04:35:08;;;;;;;17.30;9.98;;;12.10;83.80;;;;;;5072795;28;20031;-16
2022/10/27 04:37:34;;;;;;;16.23;10.18;;;12.00;83.70;;;;;;5073123;28;20031;-17
2022/10/27 04:40:00;;;;;;;30.23;16.10;;;12.00;83.60;;;;;;5073169;28;20025;-17
2022/10/27 04:42:26;;;;;;;21.38;11.45;;;12.00;83.60;;;;;;5072870;28;20059;-18
2022/10/27 04:44:52;;;;;;;20.00;12.20;;;12.00;83.70;;;;;;5072412;28;20098;-18
2022/10/27 04:47:17;;;;;;;22.95;12.60;;;12.00;83.80;;;;;;5073113;28;20024;-18
2022/10/27 04:49:43;;;;;;;25.65;15.60;;;12.10;83.80;;;;;;5072799;28;20064;-17
2022/10/27 04:52:09;;;;;;;25.50;15.02;;;12.10;84.00;;;;;;5072966;28;20021;-17
2022/10/27 04:54:35;;;;;;;24.95;15.27;;;12.10;83.90;;;;;;5072756;28;20036;-16
2022/10/27 04:57:01;;;;;;;27.35;15.25;;;12.00;83.80;;;;;;5072750;28;20082;-18
2022/10/27 04:59:27;;;;;;;26.77;16.63;;;12.00;83.80;;;;;;5072661;28;20029;-17
2022/10/27 05:01:53;;;;;;;29.52;17.15;;;12.00;83.80;;;;;;5072990;28;20020;-16
2022/10/27 05:04:18;;;;;;;25.80;14.85;;;12.00;84.00;;;;;;5072944;28;20068;-16
2022/10/27 05:06:44;;;;;;;27.58;15.20;;;12.00;84.20;;;;;;5073000;28;20033;-17
2022/10/27 05:09:10;;;;;;;30.33;16.67;;;12.00;84.10;;;;;;5072686;28;20029;-18
2022/10/27 05:11:36;;;;;;;22.35;14.40;;;11.90;84.20;;;;;;5073169;28;20025;-16
2022/10/27 05:14:02;;;;;;;20.27;11.98;;;11.90;84.40;;;;;;5074427;28;20024;-16
2022/10/27 05:16:28;;;;;;;18.88;11.77;;;11.90;84.50;;;;;;5076299;28;20498;-18
2022/10/27 05:18:54;;;;;;;20.73;12.07;;;11.90;84.40;;;;;;5076051;28;20027;-18
2022/10/27 05:21:19;;;;;;;30.27;16.65;;;11.90;84.30;;;;;;5076090;28;20024;-17
2022/10/27 05:23:45;;;;;;;22.58;13.38;;;11.90;84.40;;;;;;5076339;28;20036;-16
2022/10/27 05:26:11;;;;;;;21.40;12.30;;;11.90;84.40;;;;;;5074872;28;20032;-17
2022/10/27 05:28:37;;;;;;;18.80;11.85;;;11.80;84.40;;;;;;5076342;28;20060;-17
2022/10/27 05:31:03;;;;;;;23.48;12.65;;;11.80;84.40;;;;;;5075834;28;20046;-18
2022/10/27 05:33:28;;;;;;;23.35;13.77;;;11.80;84.30;;;;;;5076276;28;20090;-16
2022/10/27 05:35:54;;;;;;;21.65;12.73;;;11.80;84.60;;;;;;5076002;28;20380;-16
2022/10/27 05:38:20;;;;;;;22.13;11.30;;;11.80;84.50;;;;;;5074526;28;20388;-16
2022/10/27 05:40:46;;;;;;;18.20;11.20;;;11.70;84.50;;;;;;5076751;28;20035;-15
2022/10/27 05:43:12;;;;;;;23.63;13.45;;;11.80;84.50;;;;;;5076064;28;20473;-14
2022/10/27 05:45:38;;;;;;;22.35;12.40;;;11.70;84.40;;;;;;5075561;28;20063;-14
2022/10/27 05:48:08;;;;;;;21.88;11.23;;;11.70;84.60;;;;;;5075700;28;20586;-14
2022/10/27 05:50:34;;;;;;;15.15;9.02;;;11.70;84.50;;;;;;5075929;28;20033;-18
2022/10/27 05:53:00;;;;;;;19.48;10.70;;;11.70;84.40;;;;;;5075359;28;20016;-16
2022/10/27 05:55:26;;;;;;;20.88;11.82;;;11.70;84.40;;;;;;5075877;28;20029;-16
2022/10/27 05:58:01;;;;;;;20.33;12.80;;;11.70;84.40;;;;;;5075888;28;20028;-14
2022/10/27 06:00:29;;;;;;;19.10;10.90;;;11.70;84.40;;;;;;5075889;28;20023;-16
2022/10/27 06:02:59;;;;;;;17.92;10.23;;;11.70;84.40;;;;;;5075754;28;20375;-17
2022/10/27 06:05:27;;;;;;;20.00;11.40;;;11.70;84.40;;;;;;5075688;28;20036;-16
2022/10/27 06:07:53;;;;;;;20.48;12.27;;;11.70;84.30;;;;;;5074020;28;20024;-14
2022/10/27 06:10:19;;;;;;;19.33;12.55;;;11.70;84.30;;;;;;5075652;28;20035;-15
2022/10/27 06:12:45;;;;;;;21.80;12.68;;;11.70;84.30;;;;;;5075248;28;20385;-15
2022/10/27 06:15:11;;;;;;;21.50;13.23;;;11.70;84.40;;;;;;5075300;28;20460;-14
2022/10/27 06:17:37;;;;;;;23.85;14.23;;;11.80;84.50;;;;;;5075203;28;20024;-16
2022/10/27 06:20:03;;;;;;;20.23;12.45;;;11.90;84.60;;;;;;5075383;28;20032;-16
2022/10/27 06:22:29;;;;;;;24.73;13.32;;;11.90;84.80;;;;;;5074974;28;20037;-17
2022/10/27 06:24:55;;;;;;;42.03;19.65;;;12.00;84.80;;;;;;5074930;28;20115;-16
2022/10/27 06:27:21;;;;;;;26.42;15.25;;;12.20;84.90;;;;;;5074991;28;20025;-15
2022/10/27 06:29:46;;;;;;;24.48;14.73;;;12.30;85.00;;;;;;5075415;28;20053;-16
2022/10/27 06:32:12;;;;;;;24.85;14.10;;;12.40;85.10;;;;;;5074897;28;20027;-17
2022/10/27 06:34:38;;;;;;;28.27;16.23;;;12.50;85.30;;;;;;5074918;28;20025;-17
2022/10/27 06:37:04;;;;;;;29.42;16.55;;;12.60;85.30;;;;;;5074509;28;20120;-17
2022/10/27 06:39:31;;;;;;;31.15;16.35;;;12.80;85.40;;;;;;5074731;28;20055;-18
2022/10/27 06:41:57;;;;;;;25.15;15.70;;;12.90;85.30;;;;;;5074999;28;20103;-16
2022/10/27 06:44:24;;;;;;;24.77;14.18;;;13.10;85.30;;;;;;5074578;28;20056;-16
2022/10/27 06:46:50;;;;;;;21.50;12.77;;;13.20;85.40;;;;;;5074365;28;20031;-17
2022/10/27 06:49:16;;;;;;;19.40;12.27;;;13.40;85.40;;;;;;5074589;28;20023;-16
2022/10/27 06:51:42;;;;;;;22.67;12.43;;;13.50;85.50;;;;;;5074430;28;20050;-16
2022/10/27 06:54:08;;;;;;;23.17;14.60;;;13.80;85.40;;;;;;5074780;28;20020;-16
2022/10/27 06:56:34;;;;;;;20.33;12.40;;;14.00;85.10;;;;;;5074693;28;20349;-18
2022/10/27 06:59:00;;;;;;;16.60;11.23;;;14.20;84.80;;;;;;5074204;28;20032;-17
2022/10/27 07:01:26;;;;;;;17.88;11.43;;;14.40;84.50;;;;;;5074307;28;20024;-16
2022/10/27 07:03:52;;;;;;;17.90;11.82;;;14.70;84.10;;;;;;5074827;28;20108;-18
2022/10/27 07:06:18;;;;;;;17.45;10.75;;;14.90;83.70;;;;;;5074085;28;20127;-17
2022/10/27 07:08:44;;;;;;;17.55;10.98;;;15.20;83.30;;;;;;5074191;28;20016;-17
2022/10/27 07:11:10;;;;;;;17.13;11.30;;;15.40;82.70;;;;;;5074515;28;20024;-16
2022/10/27 07:13:36;;;;;;;22.63;13.15;;;15.70;82.30;;;;;;5074320;28;20028;-17
2022/10/27 07:16:02;;;;;;;16.92;11.70;;;16.00;81.80;;;;;;5074485;28;20017;-18
2022/10/27 07:18:28;;;;;;;16.15;11.18;;;16.30;81.30;;;;;;5074038;28;20033;-17
2022/10/27 07:20:54;;;;;;;17.15;11.13;;;16.60;80.70;;;;;;5074022;28;20499;-16
2022/10/27 07:23:19;;;;;;;19.13;11.18;;;16.90;80.10;;;;;;5072500;28;20025;-16
2022/10/27 07:25:49;;;;;;;16.35;10.45;;;17.10;79.60;;;;;;5073923;28;20032;-16
2022/10/27 07:28:16;;;;;;;14.40;8.60;;;17.30;79.00;;;;;;5074108;28;20021;-16
2022/10/27 07:30:43;;;;;;;13.90;9.32;;;17.30;78.70;;;;;;5073710;28;20031;-16
2022/10/27 07:33:09;;;;;;;31.30;17.90;;;17.40;78.60;;;;;;5073780;28;20024;-16
2022/10/27 07:35:36;;;;;;;27.15;15.75;;;17.40;78.40;;;;;;5073553;28;20031;-17
2022/10/27 07:38:02;;;;;;;17.77;10.93;;;17.40;78.30;;;;;;5073140;28;20431;-17
2022/10/27 07:40:28;;;;;;;15.57;10.65;;;17.50;78.20;;;;;;5073746;28;20024;-17
2022/10/27 07:42:55;;;;;;;18.15;11.50;;;17.60;78.10;;;;;;5073317;28;20020;-17
2022/10/27 07:45:24;;;;;;;16.15;10.13;;;17.70;77.90;;;;;;5072016;28;20135;-16
2022/10/27 07:47:55;;;;;;;15.77;10.95;;;17.60;77.70;;;;;;5073855;28;20014;-16
2022/10/27 07:50:26;;;;;;;14.88;8.73;;;17.60;77.80;;;;;;5073440;28;20024;-16
2022/10/27 07:52:53;;;;;;;14.98;9.30;;;17.60;78.00;;;;;;5073451;28;20033;-18
2022/10/27 07:55:21;;;;;;;15.90;9.45;;;17.60;78.10;;;;;;5072148;28;20036;-17
2022/10/27 07:57:56;;;;;;;15.60;8.93;;;17.70;78.00;;;;;;5073699;28;20048;-15
2022/10/27 08:00:22;;;;;;;14.18;8.77;;;17.80;77.90;;;;;;5073612;28;20052;-16
2022/10/27 08:02:47;;;;;;;14.30;8.35;;;17.90;77.70;;;;;;5073092;28;20496;-21
2022/10/27 08:05:13;;;;;;;12.00;7.45;;;17.90;77.40;;;;;;5073536;28;20057;-16
2022/10/27 08:07:39;;;;;;;14.25;9.07;;;18.00;77.30;;;;;;5073886;28;20048;-17
2022/10/27 08:10:05;;;;;;;18.50;9.98;;;18.10;77.00;;;;;;5073110;28;20055;-17
2022/10/27 08:12:31;;;;;;;13.23;8.00;;;18.30;76.80;;;;;;5073295;28;20017;-16
2022/10/27 08:14:57;;;;;;;12.88;8.65;;;18.40;76.50;;;;;;5072999;28;20029;-17
2022/10/27 08:17:27;;;;;;;13.18;8.20;;;18.40;76.10;;;;;;5073379;28;20523;-16
2022/10/27 08:19:53;;;;;;;16.70;8.60;;;18.50;75.70;;;;;;5071892;28;20021;-16
2022/10/27 08:22:19;;;;;;;14.27;8.65;;;18.60;75.50;;;;;;5072838;28;20128;-17
2022/10/27 08:24:45;;;;;;;16.70;9.93;;;18.80;75.10;;;;;;5072973;28;20050;-15
2022/10/27 08:27:11;;;;;;;16.48;9.75;;;18.90;74.60;;;;;;5072685;28;20032;-16
2022/10/27 08:29:37;;;;;;;13.88;9.50;;;18.90;74.10;;;;;;5073009;28;20073;-17
2022/10/27 08:32:03;;;;;;;15.93;9.85;;;19.00;74.00;;;;;;5072933;28;20024;-16
2022/10/27 08:34:29;;;;;;;16.42;9.73;;;19.20;73.90;;;;;;5073227;28;20033;-16
2022/10/27 08:36:55;;;;;;;13.57;10.00;;;19.40;73.70;;;;;;5073118;28;20533;-16
2022/10/27 08:39:20;;;;;;;17.02;11.32;;;19.50;73.60;;;;;;5072965;28;20035;-16
2022/10/27 08:42:10;;;;;;;19.45;13.57;;;19.70;73.50;;;;;;5072892;28;20035;-16
2022/10/27 08:44:46;;;;;;;15.48;11.05;;;20.00;73.00;;;;;;5072820;28;20056;-16
2022/10/27 08:47:25;;;;;;;14.82;10.30;;;20.30;72.40;;;;;;5073506;28;20025;-16
2022/10/27 08:49:51;;;;;;;14.80;8.95;;;20.50;72.30;;;;;;5077197;28;20028;-16
2022/10/27 08:52:22;;;;;;;13.48;8.80;;;20.80;71.60;;;;;;5077022;28;20079;-16
2022/10/27 08:54:53;;;;;;;19.25;10.45;;;21.20;71.40;;;;;;5076891;28;20032;-15
2022/10/27 08:57:24;;;;;;;18.50;10.48;;;21.50;70.50;;;;;;5076753;28;20499;-17
2022/10/27 08:59:58;;;;;;;17.17;10.68;;;21.70;69.80;;;;;;5077018;28;20067;-16
2022/10/27 09:02:44;;;;;;;20.30;11.73;;;21.70;69.30;;;;;;5076856;28;20149;-16
2022/10/27 09:05:27;;;;;;;14.15;9.43;;;21.70;69.20;;;;;;5076944;28;20028;-15
2022/10/27 09:08:04;;;;;;;15.10;8.77;;;21.80;69.30;;;;;;5076444;28;20027;-16
2022/10/27 09:10:41;;;;;;;15.43;9.15;;;21.90;69.40;;;;;;5076792;28;20047;-15
2022/10/27 09:13:22;;;;;;;15.63;9.98;;;22.20;69.00;;;;;;5076224;28;20029;-15
2022/10/27 09:15:52;;;;;;;16.45;10.98;;;22.50;68.20;;;;;;5076335;28;20088;-16
2022/10/27 09:18:27;;;;;;;16.23;10.63;;;22.70;67.60;;;;;;5076536;28;20123;-16
2022/10/27 09:20:58;;;;;;;15.75;9.75;;;22.80;67.00;;;;;;5076078;28;20021;-16
2022/10/27 09:23:50;;;;;;;18.35;10.38;;;22.90;66.70;;;;;;5076067;28;20115;-15
2022/10/27 09:26:23;;;;;;;15.20;10.25;;;23.00;66.60;;;;;;5071445;28;20496;-16
2022/10/27 09:28:53;;;;;;;15.60;10.48;;;23.20;66.40;;;;;;5076082;28;20104;-16
2022/10/27 09:31:34;;;;;;;17.13;10.63;;;23.20;65.80;;;;;;5076364;28;20089;-16
2022/10/27 09:34:15;;;;;;;14.85;8.90;;;23.40;65.40;;;;;;5076429;28;20492;-15
2022/10/27 09:36:41;;;;;;;19.27;10.43;;;23.40;65.30;;;;;;5075892;28;20036;-15
2022/10/27 09:39:08;;;;;;;16.38;10.40;;;23.40;64.80;;;;;;5076058;28;20029;-16
2022/10/27 09:41:35;;;;;;;13.48;8.88;;;23.40;64.20;;;;;;5076195;28;20028;-16
2022/10/27 09:44:03;;;;;;;12.68;8.18;;;23.30;64.00;;;;;;5075506;28;20049;-16
2022/10/27 09:46:31;;;;;;;15.68;9.80;;;23.30;65.00;;;;;;5075832;28;20020;-15
2022/10/27 09:49:06;;;;;;;12.63;8.20;;;23.40;64.70;;;;;;5075576;28;20476;-16
2022/10/27 09:51:42;;;;;;;18.25;10.85;;;23.60;63.90;;;;;;5075889;28;20028;-16
2022/10/27 09:54:29;;;;;;;13.30;8.55;;;23.80;63.60;;;;;;5075979;28;20036;-16
2022/10/27 09:57:09;;;;;;;18.05;10.65;;;23.90;62.90;;;;;;5075758;28;20024;-16
2022/10/27 09:59:36;;;;;;;18.73;10.25;;;24.10;63.50;;;;;;5075057;28;20099;-17
2022/10/27 10:02:05;;;;;;;15.20;9.80;;;24.30;62.60;;;;;;5075416;28;20090;-17
2022/10/27 10:04:42;;;;;;;13.40;9.20;;;24.30;62.60;;;;;;5075682;28;20060;-16
2022/10/27 10:07:32;;;;;;;16.35;11.15;;;24.40;61.80;;;;;;5075389;28;20433;-16
2022/10/27 10:10:30;;;;;;;14.88;8.88;;;24.80;61.40;;;;;;5075422;28;20053;-16
2022/10/27 10:13:02;;;;;;;14.20;9.00;;;25.00;61.20;;;;;;5075148;28;20032;-16
2022/10/27 10:15:29;;;;;;;14.93;9.88;;;25.30;61.20;;;;;;5076155;28;20142;-16
2022/10/27 10:17:58;;;;;;;16.25;9.70;;;25.60;60.20;;;;;;5075201;28;20017;-16
2022/10/27 10:20:26;;;;;;;12.82;7.97;;;25.70;58.70;;;;;;5075523;28;20032;-16
2022/10/27 10:22:53;;;;;;;16.42;9.90;;;25.90;58.90;;;;;;5075435;28;20465;-16
2022/10/27 10:25:27;;;;;;;11.90;8.05;;;26.10;58.20;;;;;;5075010;28;20033;-16
2022/10/27 10:28:02;;;;;;;11.90;8.18;;;26.30;57.60;;;;;;5075215;28;20017;-15
2022/10/27 10:30:34;;;;;;;17.88;11.60;;;26.40;57.00;;;;;;5075273;28;20074;-17
2022/10/27 10:33:03;;;;;;;14.82;9.43;;;26.50;55.80;;;;;;5073499;28;20368;-16
2022/10/27 10:35:50;;;;;;;12.65;7.85;;;26.20;56.20;;;;;;5074907;28;20028;-15
2022/10/27 10:38:38;;;;;;;14.95;8.40;;;26.00;56.90;;;;;;5075103;28;20031;-15
2022/10/27 10:41:13;;;;;;;10.95;7.22;;;26.00;57.30;;;;;;5074917;28;20123;-15
2022/10/27 10:43:40;;;;;;;12.38;8.18;;;26.30;56.40;;;;;;5075339;28;20041;-15
2022/10/27 10:46:18;;;;;;;16.05;9.55;;;26.70;54.20;;;;;;5075113;28;20111;-16
2022/10/27 10:48:49;;;;;;;11.75;8.25;;;27.10;53.50;;;;;;5074600;28;20392;-16
2022/10/27 10:51:32;;;;;;;14.43;9.07;;;27.30;53.00;;;;;;5074868;28;20044;-16
2022/10/27 10:54:16;;;;;;;14.18;8.23;;;27.40;51.60;;;;;;5074745;28;20033;-16
2022/10/27 10:56:42;;;;;;;17.90;10.82;;;27.60;50.60;;;;;;5074465;28;20024;-15
2022/10/27 10:59:19;;;;;;;17.50;10.93;;;27.80;51.00;;;;;;5074491;28;20036;-16
2022/10/27 11:02:03;;;;;;;12.15;7.95;;;27.80;50.10;;;;;;5074620;28;20021;-16
2022/10/27 11:04:38;;;;;;;15.38;9.20;;;27.70;50.80;;;;;;5074280;28;20067;-16
2022/10/27 11:07:16;;;;;;;18.73;10.15;;;27.90;50.20;;;;;;5074311;28;20048;-15
2022/10/27 11:10:09;;;;;;;15.15;8.65;;;28.10;50.20;;;;;;5074466;28;20024;-15
2022/10/27 11:12:40;;;;;;;14.18;8.98;;;28.20;49.10;;;;;;5074478;28;20024;-15
2022/10/27 11:15:31;;;;;;;14.88;8.82;;;28.10;50.20;;;;;;5074279;28;20024;-15
2022/10/27 11:18:30;;;;;;;15.05;8.65;;;28.20;49.50;;;;;;5074079;28;20056;-16
2022/10/27 11:21:06;;;;;;;20.05;11.95;;;28.30;49.60;;;;;;5074087;28;20028;-15
2022/10/27 11:24:01;;;;;;;15.73;9.63;;;28.20;49.50;;;;;;5074393;28;20384;-16
2022/10/27 11:26:33;;;;;;;13.88;9.48;;;27.90;49.70;;;;;;5073429;28;20503;-15
2022/10/27 11:29:08;;;;;;;13.25;9.35;;;27.90;50.20;;;;;;5073613;28;20549;-15
2022/10/27 11:32:08;;;;;;;15.20;8.63;;;28.10;49.80;;;;;;5074088;28;20058;-16
2022/10/27 11:34:53;;;;;;;18.45;11.23;;;28.50;48.80;;;;;;5074020;28;20024;-15
2022/10/27 11:37:31;;;;;;;15.00;8.95;;;28.70;48.60;;;;;;5073637;28;20033;-16
2022/10/27 11:40:22;;;;;;;18.17;11.85;;;28.80;48.10;;;;;;5074247;28;20048;-15
2022/10/27 11:43:14;;;;;;;14.82;9.52;;;28.80;47.50;;;;;;5072173;28;20500;-15
2022/10/27 11:46:07;;;;;;;17.50;8.90;;;28.70;48.30;;;;;;5073361;28;20085;-15
2022/10/27 11:48:38;;;;;;;;;;;28.90;48.20;;;;;;5055739;28;20531;-16
2022/10/27 11:51:22;;;;;;;12.35;7.88;;;29.20;47.80;;;;;;5073526;28;19944;-15
2022/10/27 11:53:50;;;;;;;14.07;7.95;;;29.40;48.00;;;;;;5073420;28;20028;-16
2022/10/27 11:56:29;;;;;;;18.38;11.23;;;29.50;47.70;;;;;;5073912;28;20060;-15
2022/10/27 11:59:10;;;;;;;13.90;9.85;;;29.40;45.10;;;;;;5073177;28;20024;-16
2022/10/27 12:01:54;;;;;;;15.82;9.25;;;29.30;46.70;;;;;;5072418;28;20056;-16
2022/10/27 12:04:35;;;;;;;17.23;10.32;;;29.40;46.90;;;;;;5073222;28;20503;-15
2022/10/27 12:07:16;;;;;;;13.80;9.10;;;29.60;46.80;;;;;;5073313;28;20024;-15
2022/10/27 12:10:07;;;;;;;17.00;10.73;;;29.90;45.60;;;;;;5073485;28;20469;-16
2022/10/27 12:12:48;;;;;;;15.48;10.13;;;30.10;45.70;;;;;;5071994;28;20024;-15
2022/10/27 12:15:20;;;;;;;12.88;8.57;;;30.40;45.50;;;;;;5073653;28;20075;-15
2022/10/27 12:18:00;;;;;;;16.17;10.48;;;30.60;43.70;;;;;;5073441;28;20028;-15
2022/10/27 12:20:49;;;;;;;13.20;7.65;;;30.90;44.50;;;;;;5073381;28;20040;-16
2022/10/27 12:23:29;;;;;;;16.45;9.05;;;30.90;44.20;;;;;;5052227;28;20041;-14
2022/10/27 12:26:08;;;;;;;13.13;7.75;;;30.60;44.10;;;;;;5073117;28;20495;-15
2022/10/27 12:28:36;;;;;;;18.77;11.40;;;30.30;44.70;;;;;;5073254;28;20444;-16
2022/10/27 12:31:06;;;;;;;14.35;7.32;;;30.20;45.10;;;;;;5072804;28;20491;-16
2022/10/27 12:33:47;;;;;;;13.02;8.68;;;30.00;45.70;;;;;;5072988;28;20028;-15
2022/10/27 12:36:57;;;;;;;12.68;7.80;;;30.20;44.80;;;;;;5073333;28;20099;-15
2022/10/27 12:39:44;;;;;;;13.77;7.57;;;30.50;44.10;;;;;;5073327;28;20077;-16
2022/10/27 12:42:39;;;;;;;11.82;7.63;;;30.70;45.00;;;;;;5073548;28;20460;-15
2022/10/27 12:45:29;;;;;;;14.00;7.68;;;31.10;43.50;;;;;;5064160;28;20060;-16
2022/10/27 12:48:25;;;;;;;12.70;6.78;;;31.40;42.30;;;;;;5072825;28;20044;-15
2022/10/27 12:50:57;;;;;;;8.88;6.18;;;31.70;41.30;;;;;;5073237;28;20021;-16
2022/10/27 12:53:35;;;;;;;11.52;7.22;;;31.90;41.80;;;;;;5072706;28;20144;-15